Weather History for Duncan, OK

Change the Weather History Date:

Thursday, November 15, 2012

  Actual Average (KLAW) Record (KLAW)
Temperature  
Mean Temperature 48 °F -  
Max Temperature 62 °F 60 °F 85 °F (1950)
Min Temperature 35 °F 37 °F 21 °F (1959)
Degree Days  
Heating Degree Days 16    
Moisture  
Dew Point 36 °F    
Average Humidity 65    
Maximum Humidity 87    
Minimum Humidity 45    
Precipitation  
Precipitation 0.00 in - - ()
Sea Level Pressure  
Sea Level Pressure 30.27 in    
Wind  
Wind Speed 6 mph (SE)    
Max Wind Speed 13 mph    
Max Gust Speed 16 mph    
Visibility 10 miles    
Events      
Averages and records for this station are not official NWS values.
T = Trace of Precipitation, MM = Missing Value Source: NWS Daily Summary

Daily Weather History Graph

Daily Weather History Graph

Search for Another Location

Airport:

Trip Planner

Search our weather history database for the weather conditions in past years. The results will help you decide how hot, cold, wet, or windy it might be!

Date:

Astronomy

Nov. 15, 2012 Rise Set
Actual Time 7:05 AM CST 5:26 PM CST
Civil Twilight 6:39 AM CST 5:53 PM CST
Nautical Twilight 6:08 AM CST 6:24 PM CST
Astronomical Twilight 5:38 AM CST 6:53 PM CST
Moon 9:00 AM CST (11/15) 7:22 PM CST (11/15)
Length of Visible Light 11h 14m
Length of Day
10h 21m
Waxing Crescent, 5% of the Moon is Illuminated
Nov 15
Waxing Crescent
Nov 20
First Quarter
Nov 28
Full
Dec 6
Last Quarter
Dec 13
New

Hourly Weather History & Observations

Time (CST) Temp. Windchill Dew Point Humidity Pressure Visibility Wind Dir Wind Speed Gust Speed Precip Events Conditions
12:15 AM 41.0 °F 37.1 °F 32.0 °F 70% 30.26 in 10.0 mi South 5.8 mph - N/A   Clear
12:35 AM 41.0 °F 38.0 °F 32.0 °F 70% 30.26 in 10.0 mi South 4.6 mph - N/A   Clear
12:55 AM 41.0 °F 38.0 °F 32.0 °F 70% 30.25 in 10.0 mi SSE 4.6 mph - N/A   Clear
1:15 AM 41.0 °F 38.0 °F 32.0 °F 70% 30.26 in 10.0 mi SSE 4.6 mph - N/A   Clear
1:35 AM 41.0 °F - 32.0 °F 70% 30.26 in 10.0 mi Calm Calm - N/A   Clear
1:55 AM 41.0 °F 37.1 °F 32.0 °F 70% 30.25 in 10.0 mi SE 5.8 mph - N/A   Clear
2:15 AM 41.0 °F 38.0 °F 32.0 °F 70% 30.26 in 10.0 mi SSE 4.6 mph - N/A   Clear
2:35 AM 39.2 °F 37.0 °F 32.0 °F 75% 30.26 in 10.0 mi South 3.5 mph - N/A   Clear
2:55 AM 39.2 °F 35.9 °F 32.0 °F 75% 30.26 in 10.0 mi SSE 4.6 mph - N/A   Clear
3:15 AM 39.2 °F 35.9 °F 32.0 °F 75% 30.26 in 10.0 mi SSE 4.6 mph - N/A   Clear
3:35 AM 37.4 °F 34.9 °F 32.0 °F 81% 30.25 in 10.0 mi SSE 3.5 mph - N/A   Clear
3:55 AM 37.4 °F 33.8 °F 32.0 °F 81% 30.24 in 10.0 mi SSE 4.6 mph - N/A   Clear
4:15 AM 37.4 °F 33.8 °F 32.0 °F 81% 30.24 in 10.0 mi ESE 4.6 mph - N/A   Clear
4:55 AM 37.4 °F 32.8 °F 32.0 °F 81% 30.24 in 10.0 mi SSE 5.8 mph - N/A   Clear
5:15 AM 35.6 °F 31.7 °F 32.0 °F 87% 30.25 in 10.0 mi ESE 4.6 mph - N/A   Clear
5:35 AM 35.6 °F 30.7 °F 32.0 °F 87% 30.26 in 10.0 mi ESE 5.8 mph - N/A   Clear
5:55 AM 35.6 °F 29.9 °F 32.0 °F 87% 30.26 in 10.0 mi East 6.9 mph - N/A   Clear
6:15 AM 35.6 °F 29.9 °F 32.0 °F 87% 30.26 in 10.0 mi East 6.9 mph - N/A   Clear
6:35 AM 35.6 °F 30.7 °F 32.0 °F 87% 30.26 in 10.0 mi East 5.8 mph - N/A   Clear
6:55 AM 35.6 °F 31.7 °F 32.0 °F 87% 30.26 in 10.0 mi ESE 4.6 mph - N/A   Clear
7:15 AM 35.6 °F 30.7 °F 32.0 °F 87% 30.26 in 10.0 mi East 5.8 mph - N/A   Clear
7:35 AM 35.6 °F 30.7 °F 32.0 °F 87% 30.26 in 10.0 mi East 5.8 mph - N/A   Clear
7:55 AM 37.4 °F 32.1 °F 32.0 °F 81% 30.26 in 10.0 mi ESE 6.9 mph - N/A   Clear
8:15 AM 37.4 °F 32.1 °F 33.8 °F 87% 30.27 in 10.0 mi East 6.9 mph - N/A   Clear
8:55 AM 42.8 °F 39.3 °F 33.8 °F 70% 30.27 in 10.0 mi ESE 5.8 mph - N/A   Clear
9:15 AM 46.4 °F 41.9 °F 32.0 °F 57% 30.28 in 10.0 mi SSE 9.2 mph - N/A   Clear
9:35 AM 46.4 °F 42.9 °F 32.0 °F 57% 30.30 in 10.0 mi SSE 6.9 mph - N/A   Clear
9:55 AM 46.4 °F 43.5 °F 33.8 °F 62% 30.30 in 10.0 mi South 5.8 mph - N/A   Clear
10:15 AM 50.0 °F - 33.8 °F 54% 30.30 in 10.0 mi SSE 5.8 mph - N/A   Clear
10:35 AM 50.0 °F - 33.8 °F 54% 30.30 in 10.0 mi South 6.9 mph - N/A   Clear
10:55 AM 51.8 °F - 35.6 °F 54% 30.30 in 10.0 mi SE 6.9 mph - N/A   Clear
11:15 AM 53.6 °F - 35.6 °F 51% 30.30 in 10.0 mi SE 6.9 mph - N/A   Clear
11:35 AM 53.6 °F - 35.6 °F 51% 30.29 in 10.0 mi South 9.2 mph - N/A   Clear
11:55 AM 55.4 °F - 37.4 °F 51% 30.28 in 10.0 mi South 9.2 mph - N/A   Clear
12:15 PM 57.2 °F - 37.4 °F 48% 30.26 in 10.0 mi South 9.2 mph - N/A   Clear
12:35 PM 59.0 °F - 37.4 °F 45% 30.26 in 10.0 mi SSE 8.1 mph - N/A   Clear
12:55 PM 59.0 °F - 39.2 °F 48% 30.24 in 10.0 mi South 8.1 mph - N/A   Clear
1:15 PM 60.8 °F - 39.2 °F 45% 30.24 in 10.0 mi South 9.2 mph - N/A   Clear
1:35 PM 60.8 °F - 41.0 °F 48% 30.23 in 10.0 mi South 5.8 mph - N/A   Clear
1:55 PM 60.8 °F - 41.0 °F 48% 30.22 in 10.0 mi SSE 5.8 mph - N/A   Clear
2:15 PM 60.8 °F - 41.0 °F 48% 30.22 in 10.0 mi SE 8.1 mph - N/A   Clear
2:35 PM 60.8 °F - 41.0 °F 48% 30.22 in 10.0 mi SE 8.1 mph - N/A   Clear
2:55 PM 60.8 °F - 41.0 °F 48% 30.21 in 10.0 mi SE 10.4 mph - N/A   Clear
3:15 PM 62.6 °F - 41.0 °F 45% 30.21 in 10.0 mi SE 10.4 mph 16.1 mph N/A   Clear
3:35 PM 62.6 °F - 41.0 °F 45% 30.21 in 10.0 mi SE 12.7 mph - N/A   Clear
3:55 PM 62.6 °F - 41.0 °F 45% 30.21 in 10.0 mi SE 9.2 mph - N/A   Clear
4:15 PM 60.8 °F - 39.2 °F 45% 30.22 in 10.0 mi SE 9.2 mph - N/A   Clear
4:35 PM 60.8 °F - 41.0 °F 48% 30.24 in 10.0 mi SE 9.2 mph - N/A   Clear
4:55 PM 59.0 °F - 41.0 °F 51% 30.24 in 10.0 mi SSE 6.9 mph - N/A   Clear
5:15 PM 59.0 °F - 41.0 °F 51% 30.24 in 10.0 mi SSE 5.8 mph - N/A   Clear
5:55 PM 53.6 °F - 39.2 °F 58% 30.25 in 10.0 mi SE 5.8 mph - N/A   Clear
6:15 PM 51.8 °F - 39.2 °F 62% 30.26 in 10.0 mi SE 5.8 mph - N/A   Clear
6:55 PM 51.8 °F - 39.2 °F 62% 30.28 in 10.0 mi ESE 4.6 mph - N/A   Clear
7:35 PM 48.2 °F - 37.4 °F 66% 30.29 in 10.0 mi East 6.9 mph - N/A   Clear
7:55 PM 48.2 °F - 37.4 °F 66% 30.30 in 10.0 mi East 6.9 mph - N/A   Clear
8:15 PM 46.4 °F 43.5 °F 37.4 °F 71% 30.31 in 10.0 mi East 5.8 mph - N/A   Clear
8:35 PM 46.4 °F 43.5 °F 37.4 °F 71% 30.31 in 10.0 mi East 5.8 mph - N/A   Clear
8:55 PM 46.4 °F 43.5 °F 35.6 °F 66% 30.32 in 10.0 mi East 5.8 mph - N/A   Clear
9:15 PM 46.4 °F 44.3 °F 35.6 °F 66% 30.33 in 10.0 mi East 4.6 mph - N/A   Mostly Cloudy
9:35 PM 46.4 °F 43.5 °F 35.6 °F 66% 30.33 in 10.0 mi East 5.8 mph - N/A   Mostly Cloudy
9:55 PM 48.2 °F - 35.6 °F 62% 30.34 in 10.0 mi East 4.6 mph - N/A   Mostly Cloudy
10:15 PM 46.4 °F 44.3 °F 35.6 °F 66% 30.34 in 10.0 mi East 4.6 mph - N/A   Mostly Cloudy
10:35 PM 46.4 °F 43.5 °F 35.6 °F 66% 30.34 in 10.0 mi East 5.8 mph - N/A   Mostly Cloudy
10:55 PM 46.4 °F 43.5 °F 35.6 °F 66% 30.34 in 10.0 mi East 5.8 mph - N/A   Mostly Cloudy
11:15 PM 44.6 °F - 35.6 °F 71% 30.34 in 10.0 mi Calm Calm - N/A   Scattered Clouds
11:35 PM 44.6 °F 42.2 °F 35.6 °F 71% 30.35 in 10.0 mi SE 4.6 mph - N/A   Clear
11:55 PM 44.6 °F 42.2 °F 35.6 °F 71% 30.35 in 10.0 mi East 4.6 mph - N/A   Scattered Clouds